This is the latest recevied weather packets stored in our database for station/object N1SU-13. If no packets are shown the sender has not sent any weather packets the latest 10 day(s).
| Time | Temp. | Humidity | Pressure | Rain* | Wind** | Luminosity | Snow |
|---|---|---|---|---|---|---|---|
| 1778041790 | 15° C | 76% | 1014.5 hPa | - | - | - | - |
| 1778041114 | 15.56° C | 74% | 1014.4 hPa | - | - | - | - |
| 1778040476 | 16.11° C | 73% | 1014.3 hPa | - | - | - | - |
| 1778039880 | 16.11° C | 72% | 1014.1 hPa | - | - | - | - |
| 1778039247 | 16.67° C | 70% | 1014 hPa | - | - | - | - |
| 1778038673 | 17.22° C | 69% | 1014 hPa | - | - | - | - |
| 1778038082 | 18.33° C | 66% | 1013.7 hPa | - | - | - | - |
| 1778037403 | 18.89° C | 63% | 1013.5 hPa | - | - | - | - |
| 1778036771 | 20° C | 59% | 1013.3 hPa | - | - | - | - |
| 1778036192 | 21.67° C | 53% | 1013 hPa | - | - | - | - |
| 1778035500 | 22.78° C | 50% | 1012.8 hPa | - | - | - | - |
| 1778034932 | 23.33° C | 49% | 1012.8 hPa | - | - | - | - |
| 1778034238 | 23.89° C | 48% | 1012.7 hPa | - | - | - | - |
| 1778033667 | 23.89° C | 48% | 1012.7 hPa | - | - | - | - |
| 1778033085 | 23.33° C | 49% | 1012.6 hPa | - | - | - | - |
| 1778032390 | 23.33° C | 49% | 1012.8 hPa | - | - | - | - |
| 1778031742 | 22.78° C | 49% | 1012.7 hPa | - | - | - | - |
| 1778031107 | 22.78° C | 49% | 1012.9 hPa | - | - | - | - |
| 1778030535 | 22.22° C | 52% | - | - | - | - | - |
| 1778029944 | 21.11° C | 57% | 1013 hPa | - | - | - | - |
| 1778029277 | 20.56° C | 59% | 1013.1 hPa | - | - | - | - |
| 1778028656 | 20° C | 60% | 1013.2 hPa | - | - | - | - |
| 1778027974 | 19.44° C | 62% | 1013.3 hPa | - | - | - | - |
| 1778027329 | 18.89° C | 63% | 1013.5 hPa | - | - | - | - |
| 1778026648 | 18.33° C | 64% | 1013.5 hPa | - | - | - | - |
* Rain since midnight (hover to see other rain measurements)
** Current wind speed in m/s (hover to see current wind gust speed)